createdAt,value
2023-02-19T00:00:25.343Z,14.61
2023-02-19T00:02:57.218Z,14.57
2023-02-19T00:05:27.138Z,14.49
2023-02-19T00:07:56.926Z,14.39
2023-02-19T00:10:26.490Z,14.37
2023-02-19T00:12:56.915Z,14.34
2023-02-19T00:15:26.760Z,14.33
2023-02-19T00:17:56.620Z,14.26
2023-02-19T00:20:26.521Z,14.25
2023-02-19T00:22:56.088Z,14.19
2023-02-19T00:25:25.838Z,14.16
2023-02-19T00:27:55.462Z,14.15
2023-02-19T00:30:25.675Z,14.08
2023-02-19T00:32:57.522Z,14.05
2023-02-19T00:35:27.477Z,14.05
2023-02-19T00:37:57.070Z,14.04
2023-02-19T00:40:27.304Z,13.95
2023-02-19T00:42:57.356Z,13.94
2023-02-19T00:45:27.180Z,13.89
2023-02-19T00:47:57.492Z,13.81
2023-02-19T00:50:27.510Z,13.75
2023-02-19T00:52:57.374Z,13.74
2023-02-19T00:55:27.162Z,13.70
2023-02-19T00:57:57.113Z,13.70
2023-02-19T01:00:26.729Z,13.65
2023-02-19T01:02:56.538Z,13.58
2023-02-19T01:05:28.401Z,13.54
2023-02-19T01:07:58.214Z,13.54
2023-02-19T01:10:28.375Z,13.54
2023-02-19T01:12:58.190Z,13.48
2023-02-19T01:15:27.978Z,13.44
2023-02-19T01:17:57.890Z,13.39
2023-02-19T01:20:30.538Z,13.37
2023-02-19T01:23:00.621Z,13.36
2023-02-19T01:25:30.424Z,13.31
2023-02-19T01:28:00.307Z,13.26
2023-02-19T01:30:30.284Z,13.27
2023-02-19T01:33:00.108Z,13.22
2023-02-19T01:35:30.449Z,13.19
2023-02-19T01:38:00.548Z,13.19
2023-02-19T01:40:30.521Z,13.19
2023-02-19T01:43:00.362Z,13.09
2023-02-19T01:45:35.227Z,13.10
2023-02-19T01:48:13.685Z,13.09
2023-02-19T01:50:51.755Z,12.99
2023-02-19T01:53:27.814Z,13.06
2023-02-19T01:56:01.342Z,13.03
2023-02-19T01:58:35.533Z,13.00
2023-02-19T02:01:08.439Z,12.97
2023-02-19T02:03:41.637Z,12.92
2023-02-19T02:06:25.248Z,12.95
2023-02-19T02:09:16.781Z,12.93
2023-02-19T02:11:50.339Z,12.88
2023-02-19T02:14:25.604Z,12.85
2023-02-19T02:16:55.331Z,12.83
2023-02-19T02:19:42.782Z,12.81
2023-02-19T02:22:20.253Z,12.78
2023-02-19T02:25:10.951Z,12.75
2023-02-19T02:27:48.728Z,12.71
2023-02-19T02:30:38.225Z,12.62
2023-02-19T02:33:23.761Z,12.62
2023-02-19T02:36:10.186Z,12.59
2023-02-19T02:38:44.631Z,12.54
2023-02-19T02:41:17.146Z,12.54
2023-02-19T02:43:46.959Z,12.48
2023-02-19T02:46:34.159Z,12.41
2023-02-19T02:49:11.469Z,12.37
2023-02-19T02:51:48.050Z,12.38
2023-02-19T02:54:49.508Z,12.42
2023-02-19T02:57:21.911Z,12.32
2023-02-19T02:59:56.688Z,12.34
2023-02-19T03:02:31.557Z,12.31
2023-02-19T03:05:24.942Z,12.30
2023-02-19T03:08:14.494Z,12.25
2023-02-19T03:10:47.019Z,12.25
2023-02-19T03:13:41.612Z,12.21
2023-02-19T03:16:39.392Z,12.20
2023-02-19T03:19:23.250Z,12.17
2023-02-19T03:22:11.189Z,12.14
2023-02-19T03:25:07.925Z,12.11
2023-02-19T03:27:41.346Z,12.11
2023-02-19T03:30:16.981Z,12.13
2023-02-19T03:33:13.890Z,12.10
2023-02-19T03:35:54.184Z,12.05
2023-02-19T03:38:40.871Z,12.01
2023-02-19T03:41:42.421Z,12.01
2023-02-19T03:44:38.149Z,11.97
2023-02-19T03:47:35.305Z,11.94
2023-02-19T03:50:27.516Z,11.89
2023-02-19T03:53:05.881Z,11.90
2023-02-19T03:55:35.824Z,11.86
2023-02-19T03:58:34.019Z,11.84
2023-02-19T04:01:07.237Z,11.82
2023-02-19T04:03:42.775Z,11.77
2023-02-19T04:06:19.153Z,11.79
2023-02-19T04:08:53.902Z,11.77
2023-02-19T04:11:25.888Z,11.74
2023-02-19T04:14:18.055Z,11.70
2023-02-19T04:16:56.829Z,11.70
2023-02-19T04:19:29.014Z,11.70
2023-02-19T04:22:00.064Z,11.72
2023-02-19T04:24:37.192Z,11.76
2023-02-19T04:27:08.501Z,11.72
2023-02-19T04:29:39.377Z,11.72
2023-02-19T04:32:12.419Z,11.70
2023-02-19T04:34:42.142Z,11.66
2023-02-19T04:37:11.774Z,11.63
2023-02-19T04:39:41.701Z,11.61
2023-02-19T04:42:12.575Z,11.62
2023-02-19T04:44:42.538Z,11.59
2023-02-19T04:47:12.106Z,11.59
2023-02-19T04:49:41.645Z,11.59
2023-02-19T04:52:11.832Z,11.53
2023-02-19T04:54:41.599Z,11.39
2023-02-19T04:57:11.433Z,11.40
2023-02-19T04:59:40.961Z,11.45
2023-02-19T05:02:10.558Z,11.47
2023-02-19T05:04:40.157Z,11.46
2023-02-19T05:07:09.943Z,11.46
2023-02-19T05:09:39.675Z,11.49
2023-02-19T05:12:09.479Z,11.49
2023-02-19T05:14:39.226Z,11.42
2023-02-19T05:17:08.778Z,11.36
2023-02-19T05:19:38.529Z,11.40
2023-02-19T05:22:08.196Z,11.42
2023-02-19T05:24:38.213Z,11.43
2023-02-19T05:27:08.134Z,11.40
2023-02-19T05:29:38.089Z,11.28
2023-02-19T05:32:08.712Z,11.28
2023-02-19T05:34:38.678Z,11.31
2023-02-19T05:37:08.216Z,11.38
2023-02-19T05:39:37.766Z,11.39
2023-02-19T05:42:07.658Z,11.39
2023-02-19T05:44:37.300Z,11.35
2023-02-19T05:47:06.910Z,11.32
2023-02-19T05:49:36.859Z,11.28
2023-02-19T05:52:06.669Z,11.25
2023-02-19T05:54:36.401Z,11.22
2023-02-19T05:57:05.961Z,11.21
2023-02-19T05:59:35.534Z,11.21
2023-02-19T06:02:05.143Z,11.22
2023-02-19T06:04:35.125Z,11.19
2023-02-19T06:07:04.845Z,11.19
2023-02-19T06:09:34.563Z,11.19
2023-02-19T06:12:04.140Z,11.19
2023-02-19T06:14:33.678Z,11.21
2023-02-19T06:17:03.242Z,11.21
2023-02-19T06:19:32.781Z,11.19
2023-02-19T06:22:02.358Z,11.19
2023-02-19T06:24:32.061Z,11.22
2023-02-19T06:27:01.981Z,11.21
2023-02-19T06:29:34.539Z,11.21
2023-02-19T06:32:04.530Z,11.10
2023-02-19T06:34:35.156Z,11.07
2023-02-19T06:37:05.298Z,11.10
2023-02-19T06:39:34.851Z,11.08
2023-02-19T06:42:05.572Z,11.08
2023-02-19T06:44:35.523Z,11.05
2023-02-19T06:47:05.201Z,11.03
2023-02-19T06:49:35.873Z,11.04
2023-02-19T06:52:06.042Z,11.04
2023-02-19T06:54:35.838Z,11.07
2023-02-19T06:57:05.541Z,11.03
2023-02-19T06:59:35.096Z,11.04
2023-02-19T07:02:04.800Z,11.01
2023-02-19T07:04:34.411Z,11.00
2023-02-19T07:07:04.028Z,10.95
2023-02-19T07:09:34.628Z,10.97
2023-02-19T07:12:04.377Z,10.94
2023-02-19T07:14:34.364Z,10.95
2023-02-19T07:17:04.921Z,10.98
2023-02-19T07:19:34.728Z,10.95
2023-02-19T07:22:04.282Z,10.94
2023-02-19T07:24:33.842Z,10.95
2023-02-19T07:27:03.389Z,10.95
2023-02-19T07:29:32.945Z,10.94
2023-02-19T07:32:02.648Z,11.00
2023-02-19T07:34:32.267Z,11.01
2023-02-19T07:37:02.303Z,11.04
2023-02-19T07:39:31.961Z,11.12
2023-02-19T07:42:01.861Z,11.21
2023-02-19T07:44:34.641Z,11.34
2023-02-19T07:47:04.461Z,11.38
2023-02-19T07:49:34.495Z,11.38
2023-02-19T07:52:04.324Z,11.40
2023-02-19T07:54:34.143Z,11.43
2023-02-19T07:57:03.705Z,11.38
2023-02-19T07:59:33.629Z,11.34
2023-02-19T08:02:21.861Z,11.29
2023-02-19T08:04:51.750Z,11.28
2023-02-19T08:07:21.307Z,11.28
2023-02-19T08:10:10.813Z,11.26
2023-02-19T08:12:58.798Z,11.22
2023-02-19T08:15:28.688Z,11.12
2023-02-19T08:17:58.619Z,11.12
2023-02-19T08:20:28.329Z,11.15
2023-02-19T08:22:57.855Z,11.15
2023-02-19T08:25:27.911Z,11.16
2023-02-19T08:27:58.792Z,11.12
2023-02-19T08:30:30.860Z,11.12
2023-02-19T08:33:02.528Z,11.15
2023-02-19T08:35:33.606Z,11.16
2023-02-19T08:38:04.027Z,11.19
2023-02-19T08:40:35.150Z,11.16
2023-02-19T08:43:13.899Z,11.29
2023-02-19T08:45:45.505Z,11.29
2023-02-19T08:48:15.619Z,11.29
2023-02-19T08:50:45.554Z,11.36
2023-02-19T08:53:15.334Z,11.35
2023-02-19T08:55:45.662Z,11.35
2023-02-19T08:58:15.568Z,11.43
2023-02-19T09:00:45.366Z,11.46
2023-02-19T09:03:14.896Z,11.38
2023-02-19T09:05:46.370Z,11.46
2023-02-19T09:08:16.989Z,11.55
2023-02-19T09:10:47.052Z,11.59
2023-02-19T09:13:17.467Z,11.62
2023-02-19T09:15:47.421Z,11.61
2023-02-19T09:18:17.144Z,11.56
2023-02-19T09:20:46.765Z,11.51
2023-02-19T09:23:16.738Z,11.49
2023-02-19T09:25:46.504Z,11.45
2023-02-19T09:28:18.011Z,11.42
2023-02-19T09:30:48.877Z,11.38
2023-02-19T09:33:18.649Z,11.32
2023-02-19T09:35:48.617Z,11.29
2023-02-19T09:38:18.434Z,11.31
2023-02-19T09:40:48.252Z,11.35
2023-02-19T09:43:23.236Z,11.38
2023-02-19T09:46:04.035Z,11.46
2023-02-19T09:48:34.147Z,11.47
2023-02-19T09:51:05.513Z,11.59
2023-02-19T09:53:43.325Z,11.65
2023-02-19T09:56:13.501Z,11.83
2023-02-19T09:58:50.299Z,12.04
2023-02-19T10:01:20.678Z,12.32
2023-02-19T10:03:51.004Z,12.66
2023-02-19T10:06:30.907Z,13.27
2023-02-19T10:09:36.249Z,13.95
2023-02-19T10:12:17.243Z,14.33
2023-02-19T10:14:50.769Z,14.61
2023-02-19T10:17:36.616Z,15.00
2023-02-19T10:20:06.730Z,15.15
2023-02-19T10:22:39.168Z,15.46
2023-02-19T10:25:09.376Z,15.82
2023-02-19T10:27:39.504Z,16.13
2023-02-19T10:30:14.269Z,16.38
2023-02-19T10:33:01.465Z,16.69
2023-02-19T10:35:32.769Z,17.05
2023-02-19T10:38:04.530Z,17.30
2023-02-19T10:40:35.355Z,17.50
2023-02-19T10:43:06.408Z,17.70
2023-02-19T10:45:42.247Z,17.91
2023-02-19T10:48:26.004Z,18.40
2023-02-19T10:51:01.117Z,18.71
2023-02-19T10:53:47.546Z,19.14
2023-02-19T10:56:25.892Z,19.34
2023-02-19T10:58:56.317Z,19.75
2023-02-19T11:01:31.280Z,19.72
2023-02-19T11:04:19.020Z,20.00
2023-02-19T11:06:49.416Z,20.40
2023-02-19T11:09:41.104Z,20.92
2023-02-19T11:12:11.876Z,21.29
2023-02-19T11:14:47.445Z,21.60
2023-02-19T11:17:29.905Z,21.15
2023-02-19T11:20:18.152Z,21.37
2023-02-19T11:22:48.148Z,21.53
2023-02-19T11:25:18.813Z,22.00
2023-02-19T11:28:22.077Z,22.19
2023-02-19T11:30:52.309Z,22.14
2023-02-19T11:33:29.232Z,21.98
2023-02-19T11:36:18.184Z,21.74
2023-02-19T11:38:47.973Z,21.84
2023-02-19T11:41:17.951Z,22.19
2023-02-19T11:43:58.218Z,21.88
2023-02-19T11:46:48.250Z,22.42
2023-02-19T11:49:30.757Z,22.55
2023-02-19T11:52:34.564Z,22.33
2023-02-19T11:55:36.192Z,22.26
2023-02-19T11:58:30.717Z,22.63
2023-02-19T12:01:33.564Z,22.70
2023-02-19T12:04:27.399Z,23.21
2023-02-19T12:07:08.869Z,23.88
2023-02-19T12:10:01.776Z,24.63
2023-02-19T12:12:58.321Z,24.82
2023-02-19T12:15:44.678Z,24.61
2023-02-19T12:18:34.680Z,24.08
2023-02-19T12:21:14.793Z,23.88
2023-02-19T12:24:27.237Z,24.87
2023-02-19T12:26:59.845Z,24.36
2023-02-19T12:29:41.758Z,24.53
2023-02-19T12:32:29.050Z,24.47
2023-02-19T12:35:13.770Z,24.34
2023-02-19T12:38:12.489Z,24.46
2023-02-19T12:41:20.374Z,24.57
2023-02-19T12:44:14.163Z,24.98
2023-02-19T12:46:51.065Z,25.71
2023-02-19T12:49:27.001Z,25.56
2023-02-19T12:52:04.703Z,25.90
2023-02-19T12:54:45.853Z,25.90
2023-02-19T12:57:28.955Z,25.96
2023-02-19T13:00:04.809Z,26.14
2023-02-19T13:02:51.781Z,26.60
2023-02-19T13:06:00.599Z,26.38
2023-02-19T13:09:05.261Z,26.53
2023-02-19T13:11:44.700Z,27.34
2023-02-19T13:14:44.082Z,27.69
2023-02-19T13:17:25.530Z,27.69
2023-02-19T13:20:02.660Z,26.97
2023-02-19T13:23:23.777Z,26.72
2023-02-19T13:26:05.210Z,27.47
2023-02-19T13:28:50.926Z,26.87
2023-02-19T13:31:58.686Z,26.76
2023-02-19T13:34:45.056Z,26.99
2023-02-19T13:37:15.992Z,28.64
2023-02-19T13:39:53.859Z,28.36
2023-02-19T13:42:35.432Z,29.11
2023-02-19T13:45:07.872Z,29.08
2023-02-19T13:47:56.046Z,29.63
2023-02-19T13:50:32.537Z,29.92
2023-02-19T13:53:23.373Z,30.41
2023-02-19T13:55:54.643Z,31.09
2023-02-19T13:58:39.031Z,31.39
2023-02-19T14:01:11.595Z,31.44
2023-02-19T14:03:48.667Z,29.83
2023-02-19T14:06:19.022Z,29.52
2023-02-19T14:08:54.347Z,29.74
2023-02-19T14:11:49.809Z,29.70
2023-02-19T14:14:27.602Z,31.12
2023-02-19T14:17:05.732Z,31.04
2023-02-19T14:19:44.341Z,31.64
2023-02-19T14:22:50.494Z,30.62
2023-02-19T14:25:29.540Z,31.59
2023-02-19T14:28:24.182Z,31.41
2023-02-19T14:30:57.554Z,31.20
2023-02-19T14:33:30.818Z,30.75
2023-02-19T14:36:27.200Z,31.56
2023-02-19T14:39:13.259Z,30.82
2023-02-19T14:41:48.490Z,31.37
2023-02-19T14:44:27.385Z,31.30
2023-02-19T14:47:11.111Z,30.67
2023-02-19T14:49:49.806Z,30.96
2023-02-19T14:52:26.126Z,30.78
2023-02-19T14:55:02.533Z,31.46
2023-02-19T14:57:40.634Z,33.10
2023-02-19T15:00:40.561Z,33.78
2023-02-19T15:03:39.820Z,33.21
2023-02-19T15:06:20.686Z,33.84
2023-02-19T15:08:58.068Z,34.06
2023-02-19T15:11:30.209Z,34.77
2023-02-19T15:14:07.096Z,34.97
2023-02-19T15:16:38.201Z,34.13
2023-02-19T15:19:10.368Z,33.04
2023-02-19T15:21:46.222Z,32.62
2023-02-19T15:24:18.604Z,33.20
2023-02-19T15:26:55.334Z,33.50
2023-02-19T15:29:27.566Z,34.79
2023-02-19T15:32:03.565Z,35.62
2023-02-19T15:34:34.152Z,34.86
2023-02-19T15:37:10.975Z,35.11
2023-02-19T15:39:45.836Z,35.08
2023-02-19T15:42:31.168Z,34.79
2023-02-19T15:45:21.812Z,34.32
2023-02-19T15:47:57.272Z,33.34
2023-02-19T15:50:37.300Z,32.87
2023-02-19T15:53:15.656Z,32.35
2023-02-19T15:55:44.975Z,33.08
2023-02-19T15:58:22.940Z,33.54
2023-02-19T16:00:58.218Z,34.43
2023-02-19T16:03:29.787Z,33.07
2023-02-19T16:06:12.520Z,33.58
2023-02-19T16:09:03.584Z,33.69
2023-02-19T16:11:54.580Z,33.44
2023-02-19T16:14:26.364Z,34.08
2023-02-19T16:17:14.035Z,34.40
2023-02-19T16:19:49.692Z,34.12
2023-02-19T16:22:22.521Z,34.33
2023-02-19T16:24:56.382Z,33.30
2023-02-19T16:27:41.104Z,33.68
2023-02-19T16:30:19.309Z,33.76
2023-02-19T16:32:49.251Z,34.47
2023-02-19T16:35:41.373Z,35.38
2023-02-19T16:38:18.621Z,36.54
2023-02-19T16:40:55.392Z,34.77
2023-02-19T16:43:34.398Z,34.27
2023-02-19T16:46:04.209Z,34.67
2023-02-19T16:48:34.985Z,35.65
2023-02-19T16:51:08.062Z,36.66
2023-02-19T16:53:38.075Z,35.89
2023-02-19T16:56:10.589Z,35.45
2023-02-19T16:58:40.558Z,35.82
2023-02-19T17:01:10.453Z,36.95
2023-02-19T17:03:41.250Z,35.89
2023-02-19T17:06:12.286Z,35.14
2023-02-19T17:08:46.431Z,34.93
2023-02-19T17:11:18.871Z,34.10
2023-02-19T17:13:50.060Z,32.96
2023-02-19T17:16:28.308Z,33.43
2023-02-19T17:18:57.757Z,35.42
2023-02-19T17:21:33.106Z,34.70
2023-02-19T17:24:04.701Z,32.91
2023-02-19T17:26:34.822Z,32.66
2023-02-19T17:29:07.441Z,31.81
2023-02-19T17:31:37.790Z,31.34
2023-02-19T17:34:07.662Z,33.47
2023-02-19T17:36:39.102Z,34.60
2023-02-19T17:39:09.391Z,36.61
2023-02-19T17:41:39.071Z,36.70
2023-02-19T17:44:08.870Z,35.65
2023-02-19T17:46:40.696Z,34.46
2023-02-19T17:49:14.098Z,34.57
2023-02-19T17:51:44.117Z,34.05
2023-02-19T17:54:13.890Z,34.15
2023-02-19T17:56:46.768Z,34.04
2023-02-19T17:59:18.275Z,34.47
2023-02-19T18:01:48.281Z,34.79
2023-02-19T18:04:18.310Z,33.78
2023-02-19T18:06:49.287Z,33.28
2023-02-19T18:09:20.564Z,34.42
2023-02-19T18:11:50.578Z,35.30
2023-02-19T18:14:20.197Z,35.83
2023-02-19T18:16:51.031Z,34.97
2023-02-19T18:19:21.068Z,34.31
2023-02-19T18:21:51.058Z,32.93
2023-02-19T18:24:21.400Z,31.94
2023-02-19T18:26:51.235Z,33.23
2023-02-19T18:29:23.010Z,32.91
2023-02-19T18:31:53.799Z,32.55
2023-02-19T18:34:23.852Z,32.25
2023-02-19T18:36:53.529Z,32.22
2023-02-19T18:39:23.310Z,31.09
2023-02-19T18:41:53.865Z,31.98
2023-02-19T18:44:25.240Z,32.36
2023-02-19T18:46:55.205Z,32.45
2023-02-19T18:49:25.812Z,31.37
2023-02-19T18:51:55.665Z,30.68
2023-02-19T18:54:25.278Z,30.96
2023-02-19T18:56:55.243Z,31.73
2023-02-19T18:59:25.735Z,31.41
2023-02-19T19:01:55.595Z,31.34
2023-02-19T19:04:25.416Z,32.29
2023-02-19T19:06:55.440Z,31.47
2023-02-19T19:09:25.241Z,32.01
2023-02-19T19:11:55.233Z,31.03
2023-02-19T19:14:25.475Z,30.45
2023-02-19T19:16:55.353Z,30.09
2023-02-19T19:19:25.302Z,30.44
2023-02-19T19:21:56.319Z,31.03
2023-02-19T19:24:26.709Z,31.69
2023-02-19T19:26:56.749Z,31.77
2023-02-19T19:29:26.681Z,32.02
2023-02-19T19:31:56.322Z,31.02
2023-02-19T19:34:26.353Z,30.92
2023-02-19T19:36:56.111Z,30.98
2023-02-19T19:39:29.666Z,30.60
2023-02-19T19:41:59.752Z,30.72
2023-02-19T19:44:29.433Z,30.49
2023-02-19T19:46:59.244Z,30.91
2023-02-19T19:49:29.212Z,30.44
2023-02-19T19:52:03.053Z,30.25
2023-02-19T19:54:33.011Z,29.36
2023-02-19T19:57:02.632Z,28.88
2023-02-19T19:59:32.461Z,28.86
2023-02-19T20:02:03.950Z,28.93
2023-02-19T20:04:33.916Z,28.77
2023-02-19T20:07:03.750Z,28.53
2023-02-19T20:09:33.507Z,28.43
2023-02-19T20:12:04.139Z,28.37
2023-02-19T20:14:34.945Z,28.35
2023-02-19T20:17:05.773Z,28.17
2023-02-19T20:19:35.722Z,28.15
2023-02-19T20:22:05.350Z,28.17
2023-02-19T20:24:35.140Z,28.05
2023-02-19T20:27:05.334Z,28.22
2023-02-19T20:29:36.731Z,28.26
2023-02-19T20:32:06.943Z,28.20
2023-02-19T20:34:36.792Z,28.19
2023-02-19T20:37:07.855Z,28.08
2023-02-19T20:39:38.635Z,27.92
2023-02-19T20:42:08.889Z,27.86
2023-02-19T20:44:38.885Z,27.88
2023-02-19T20:47:08.719Z,28.04
2023-02-19T20:49:38.722Z,27.91
2023-02-19T20:52:09.402Z,27.59
2023-02-19T20:54:39.554Z,27.57
2023-02-19T20:57:09.719Z,27.44
2023-02-19T20:59:40.034Z,27.29
2023-02-19T21:02:35.911Z,27.18
2023-02-19T21:05:07.217Z,27.06
2023-02-19T21:07:37.066Z,26.99
2023-02-19T21:10:07.421Z,26.82
2023-02-19T21:12:37.668Z,26.68
2023-02-19T21:15:08.035Z,26.52
2023-02-19T21:17:37.871Z,26.42
2023-02-19T21:20:08.356Z,26.16
2023-02-19T21:22:38.291Z,25.76
2023-02-19T21:25:08.181Z,25.56
2023-02-19T21:27:38.615Z,25.47
2023-02-19T21:30:09.137Z,25.26
2023-02-19T21:32:38.982Z,25.14
2023-02-19T21:35:09.752Z,25.02
2023-02-19T21:37:44.213Z,24.99
2023-02-19T21:40:14.584Z,24.94
2023-02-19T21:42:44.671Z,24.84
2023-02-19T21:45:14.280Z,24.87
2023-02-19T21:47:45.115Z,24.85
2023-02-19T21:50:14.940Z,24.72
2023-02-19T21:52:44.786Z,24.68
2023-02-19T21:55:14.439Z,24.57
2023-02-19T21:57:44.384Z,24.49
2023-02-19T22:00:14.748Z,24.46
2023-02-19T22:02:44.597Z,24.46
2023-02-19T22:05:14.503Z,24.49
2023-02-19T22:07:44.427Z,24.51
2023-02-19T22:10:14.674Z,24.44
2023-02-19T22:12:44.537Z,24.39
2023-02-19T22:15:14.496Z,24.30
2023-02-19T22:17:44.368Z,24.29
2023-02-19T22:20:18.298Z,24.06
2023-02-19T22:22:48.254Z,23.93
2023-02-19T22:25:18.599Z,23.85
2023-02-19T22:27:50.070Z,23.73
2023-02-19T22:30:20.346Z,23.68
2023-02-19T22:32:50.242Z,23.72
2023-02-19T22:35:20.185Z,23.62
2023-02-19T22:37:50.184Z,23.57
2023-02-19T22:40:20.050Z,23.57
2023-02-19T22:42:49.973Z,23.47
2023-02-19T22:45:20.020Z,23.37
2023-02-19T22:47:50.769Z,23.28
2023-02-19T22:50:23.661Z,23.21
2023-02-19T22:52:56.839Z,23.20
2023-02-19T22:55:26.846Z,23.10
2023-02-19T22:57:56.519Z,23.07
2023-02-19T23:00:26.365Z,23.01
2023-02-19T23:02:56.371Z,22.77
2023-02-19T23:05:26.638Z,22.64
2023-02-19T23:07:56.514Z,22.62
2023-02-19T23:10:26.217Z,22.53
2023-02-19T23:12:55.890Z,22.53
2023-02-19T23:15:25.727Z,22.33
2023-02-19T23:17:55.418Z,22.29
2023-02-19T23:20:25.482Z,22.21
2023-02-19T23:22:55.265Z,22.22
2023-02-19T23:25:25.111Z,22.18
2023-02-19T23:27:55.177Z,22.12
2023-02-19T23:30:25.454Z,22.05
2023-02-19T23:32:55.363Z,21.97
2023-02-19T23:35:25.412Z,21.93
2023-02-19T23:37:59.082Z,21.87
2023-02-19T23:40:29.110Z,21.84
2023-02-19T23:42:58.942Z,21.74
2023-02-19T23:45:28.651Z,21.58
2023-02-19T23:47:58.723Z,21.58
2023-02-19T23:50:28.491Z,21.53
2023-02-19T23:53:01.234Z,21.49
2023-02-19T23:55:31.348Z,21.47
2023-02-19T23:58:01.238Z,21.40
